Time;durP1;ratioP1;P1;durP2;ratioP2;P2;SDS_P1;SDS_P2;PMS_P1;PMS_P2;Temp;Humidity;BMP_temperature;BMP_pressure;BME280_temperature;BME280_humidity;BME280_pressure;Samples;Min_cycle;Max_cycle;Signal;HPM_P1;HPM_P2
2023/03/31 00:01:23;;;;;;;6.53;5.90;;;;;;;21.74;38.28;94998.50;6112701;28;109324;-60
2023/03/31 00:04:31;;;;;;;7.77;6.20;;;;;;;21.74;38.16;95004.59;6110622;22;109231;-58
2023/03/31 00:07:38;;;;;;;6.90;5.67;;;;;;;21.73;38.31;95010.25;6079573;28;109100;-59
2023/03/31 00:10:47;;;;;;;7.10;5.50;;;;;;;21.73;38.29;95015.56;6089942;28;108801;-59
2023/03/31 00:13:54;;;;;;;5.20;4.70;;;;;;;21.72;38.09;95004.13;6089141;28;109227;-59
2023/03/31 00:17:03;;;;;;;6.00;5.50;;;;;;;21.73;38.45;95012.91;6088358;28;109282;-59
2023/03/31 00:20:13;;;;;;;5.40;4.90;;;;;;;21.73;38.20;94999.59;6077750;28;109101;-59
2023/03/31 00:23:26;;;;;;;6.10;5.50;;;;;;;21.75;38.53;95003.50;6089574;28;109282;-59
2023/03/31 00:26:34;;;;;;;5.90;5.30;;;;;;;21.75;38.78;94992.84;6088922;28;109218;-59
2023/03/31 00:29:42;;;;;;;6.30;5.63;;;;;;;21.76;38.59;94996.31;6068841;28;109292;-59
2023/03/31 00:32:49;;;;;;;5.50;4.97;;;;;;;21.75;38.50;95002.72;6088573;28;108973;-58
2023/03/31 00:36:04;;;;;;;7.50;5.93;;;;;;;21.70;37.89;94987.66;6089491;28;110064;-64
2023/03/31 00:39:13;;;;;;;9.73;6.23;;;;;;;21.76;38.72;94993.66;6085807;28;109055;-59
2023/03/31 00:42:28;;;;;;;6.47;5.77;;;;;;;21.74;38.35;94985.97;6077939;28;109110;-59
2023/03/31 00:45:41;;;;;;;7.97;5.97;;;;;;;21.74;38.30;94985.19;6089144;28;108852;-60
2023/03/31 00:48:56;;;;;;;7.90;5.37;;;;;;;21.72;38.38;94987.34;6089235;28;111819;-60
2023/03/31 00:52:13;;;;;;;7.73;5.93;;;;;;;21.71;38.46;94983.13;6082566;28;110162;-60
2023/03/31 00:55:25;;;;;;;7.53;5.47;;;;;;;21.71;38.73;94983.13;6084127;28;109143;-61
2023/03/31 00:58:34;;;;;;;6.27;5.40;;;;;;;21.65;38.33;94976.34;6089072;28;109326;-60
2023/03/31 01:01:49;;;;;;;5.43;4.93;;;;;;;21.69;38.41;94978.09;6088570;28;109497;-60
2023/03/31 01:05:02;;;;;;;7.23;4.90;;;;;;;21.68;38.31;94970.44;6077043;28;108912;-60
2023/03/31 01:08:23;;;;;;;5.60;5.10;;;;;;;21.69;38.66;94969.34;6088259;28;109157;-60
2023/03/31 01:11:35;;;;;;;6.73;4.97;;;;;;;21.68;38.73;94971.22;6087607;28;109344;-60
2023/03/31 01:14:42;;;;;;;6.97;5.13;;;;;;;21.67;38.27;94961.63;6084169;28;111172;-60
2023/03/31 01:17:54;;;;;;;7.00;4.80;;;;;;;21.71;38.48;94964.47;6080214;28;111366;-60
2023/03/31 01:21:55;;;;;;;6.37;5.10;;;;;;;21.69;38.46;94966.66;6088428;28;109117;-60
2023/03/31 01:25:51;;;;;;;4.93;4.50;;;;;;;21.72;38.89;94966.84;6079944;28;109328;-60
2023/03/31 01:29:10;;;;;;;5.00;4.33;;;;;;;21.63;38.57;94951.88;6001899;28;109162;-59
2023/03/31 01:32:55;;;;;;;5.40;4.40;;;;;;;21.67;38.80;94963.50;6020878;28;111897;-59
2023/03/31 01:36:36;;;;;;;5.70;4.83;;;;;;;21.72;38.85;94971.38;6063400;28;112600;-59
2023/03/31 01:40:15;;;;;;;4.60;3.77;;;;;;;21.71;38.55;94981.25;6067407;28;109110;-59
2023/03/31 01:43:27;;;;;;;5.47;4.30;;;;;;;21.71;38.41;94986.56;6077188;28;109047;-58
2023/03/31 01:46:44;;;;;;;4.97;4.47;;;;;;;21.71;38.41;94986.56;6087514;28;109371;-59
2023/03/31 01:50:01;;;;;;;4.70;4.30;;;;;;;21.71;38.23;94996.44;6077411;28;110307;-59
2023/03/31 01:53:18;;;;;;;7.13;4.50;;;;;;;21.70;38.39;95000.97;6088088;28;111367;-59
2023/03/31 01:56:34;;;;;;;5.00;4.30;;;;;;;21.70;38.34;95000.97;6084250;28;110938;-59
2023/03/31 01:59:57;;;;;;;5.07;4.60;;;;;;;21.71;38.46;95009.75;6086562;28;109603;-58
2023/03/31 02:03:11;;;;;;;5.20;4.70;;;;;;;21.70;38.28;94998.31;6076656;28;110301;-58
2023/03/31 02:06:27;;;;;;;4.93;4.40;;;;;;;21.70;38.23;94994.88;6087600;28;108994;-58
2023/03/31 02:09:45;;;;;;;4.60;4.20;;;;;;;21.70;38.19;94992.22;6075966;28;109125;-60
2023/03/31 02:12:57;;;;;;;4.77;4.37;;;;;;;21.69;38.43;95003.94;6054385;28;108998;-59
2023/03/31 02:16:13;;;;;;;4.83;4.33;;;;;;;21.69;38.11;95003.94;6091268;28;109282;-59
2023/03/31 02:19:29;;;;;;;4.13;3.73;;;;;;;21.69;38.29;95011.94;6079696;28;109326;-59
2023/03/31 02:22:39;;;;;;;4.30;3.30;;;;;;;21.69;38.17;95020.72;6089495;28;109114;-60
2023/03/31 02:25:51;;;;;;;4.70;3.63;;;;;;;21.68;38.22;95029.00;6078650;28;109121;-60
2023/03/31 02:29:04;;;;;;;4.87;4.13;;;;;;;21.70;38.01;95038.28;6091899;28;109070;-60
2023/03/31 02:32:20;;;;;;;3.97;3.67;;;;;;;21.67;38.44;95027.41;6076734;28;110378;-60
2023/03/31 02:35:29;;;;;;;3.63;3.33;;;;;;;21.70;38.06;95040.16;6081114;28;109262;-60
2023/03/31 02:38:49;;;;;;;4.07;3.67;;;;;;;21.69;38.09;95041.25;6091617;28;108958;-60
2023/03/31 02:42:01;;;;;;;4.37;3.47;;;;;;;21.69;37.93;95043.91;6090695;28;108992;-59
2023/03/31 02:45:44;;;;;;;3.87;3.57;;;;;;;21.66;38.39;95031.94;6091042;28;109023;-60
2023/03/31 02:48:59;;;;;;;3.60;3.30;;;;;;;21.69;38.24;95049.22;6072266;28;110683;-60
2023/03/31 02:52:39;;;;;;;4.70;3.70;;;;;;;21.69;38.39;95047.34;6089732;28;109217;-60
2023/03/31 02:56:05;;;;;;;3.80;3.40;;;;;;;21.69;38.20;95035.91;6086617;28;109048;-60
2023/03/31 02:59:39;;;;;;;4.20;3.80;;;;;;;21.68;38.38;95037.78;6074060;28;109080;-60
2023/03/31 03:03:12;;;;;;;3.70;3.40;;;;;;;21.64;38.21;95020.81;6083009;28;109172;-61
2023/03/31 03:06:37;;;;;;;4.00;3.40;;;;;;;21.69;38.22;95025.25;6091088;28;109118;-60
2023/03/31 03:09:58;;;;;;;4.43;3.90;;;;;;;21.61;38.36;94996.69;6081255;28;109120;-60
2023/03/31 03:13:19;;;;;;;3.67;3.37;;;;;;;21.67;38.09;95003.44;6090241;28;109145;-61
2023/03/31 03:16:35;;;;;;;3.53;3.23;;;;;;;21.59;38.38;94980.22;6090622;28;109279;-61
2023/03/31 03:19:52;;;;;;;4.33;3.53;;;;;;;21.68;38.41;94991.72;6081805;28;109108;-60
2023/03/31 03:23:04;;;;;;;3.43;3.03;;;;;;;21.67;38.05;94984.81;6081169;28;109911;-61
2023/03/31 03:26:20;;;;;;;3.50;3.20;;;;;;;21.59;38.04;94957.03;6081107;28;109317;-60
2023/03/31 03:29:32;;;;;;;3.50;3.20;;;;;;;21.67;38.13;94980.25;6090190;28;110066;-61
2023/03/31 03:32:45;;;;;;;4.87;3.90;;;;;;;21.67;38.60;94980.25;6075287;28;110360;-63
2023/03/31 03:35:52;;;;;;;4.97;3.80;;;;;;;21.70;38.61;94978.88;6078160;28;109150;-61
2023/03/31 03:39:03;;;;;;;4.50;3.90;;;;;;;21.70;38.43;94978.88;6084206;28;109287;-60
2023/03/31 03:42:14;;;;;;;4.27;3.70;;;;;;;21.70;38.46;94974.34;6088563;28;109198;-63
2023/03/31 03:45:24;;;;;;;5.60;4.07;;;;;;;21.70;38.00;94986.88;6079616;28;108890;-63
2023/03/31 03:48:34;;;;;;;6.60;4.73;;;;;;;21.68;38.04;94984.53;6087793;28;109367;-63
2023/03/31 03:51:50;;;;;;;4.10;3.80;;;;;;;21.66;37.95;94977.91;6088392;28;108875;-63
2023/03/31 03:54:57;;;;;;;31.27;28.33;;;;;;;21.66;37.46;94972.56;6075063;28;109696;-62
2023/03/31 03:58:06;;;;;;;27.00;24.60;;;;;;;21.65;37.62;94965.69;6083509;28;112504;-61
2023/03/31 04:01:15;;;;;;;8.20;7.50;;;;;;;21.63;37.51;94968.66;6087978;28;108974;-62
2023/03/31 04:04:23;;;;;;;30.83;27.80;;;;;;;21.65;37.18;94966.47;6085857;28;109309;-60
2023/03/31 04:07:32;;;;;;;32.83;29.93;;;;;;;21.65;37.39;94968.34;6078416;28;109174;-67
2023/03/31 04:10:44;;;;;;;28.63;26.10;;;;;;;21.64;37.36;94970.22;6089368;28;109398;-59
2023/03/31 04:13:54;;;;;;;73.40;67.03;;;;;;;21.57;37.28;94953.13;6088477;28;109996;-63
2023/03/31 04:17:03;;;;;;;80.37;73.17;;;;;;;21.69;37.68;94956.81;6091850;28;109122;-62
2023/03/31 04:20:18;;;;;;;79.77;72.77;;;;;;;21.74;37.90;94966.53;6081597;28;109617;-62
2023/03/31 04:23:32;;;;;;;79.27;71.60;;;;;;;21.80;38.09;94975.97;6089784;28;109985;-65
2023/03/31 04:26:44;;;;;;;43.70;39.60;;;;;;;21.68;36.82;94975.75;6088101;28;109387;-63
2023/03/31 04:29:53;;;;;;;52.57;47.57;;;;;;;21.65;36.81;94979.00;6077784;28;109469;-65
2023/03/31 04:33:01;;;;;;;57.40;51.83;;;;;;;21.64;37.06;94974.75;6087100;28;109166;-63
2023/03/31 04:36:06;;;;;;;60.47;55.23;;;;;;;21.59;36.21;94969.56;6089322;28;111271;-62
2023/03/31 04:39:23;;;;;;;36.40;32.77;;;;;;;21.55;36.38;94981.94;6085935;28;109687;-64
2023/03/31 04:42:29;;;;;;;24.80;22.30;;;;;;;21.50;36.34;94975.59;6076178;28;109429;-60
2023/03/31 04:45:36;;;;;;;33.13;30.33;;;;;;;21.51;35.69;94961.22;6088906;28;109044;-59
2023/03/31 04:48:49;;;;;;;26.63;24.33;;;;;;;21.66;35.79;94973.38;6082432;28;109186;-61
2023/03/31 04:51:58;;;;;;;19.80;18.00;;;;;;;21.61;35.19;94970.06;6084904;28;109634;-60
2023/03/31 04:55:10;;;;;;;14.33;12.83;;;;;;;21.54;35.35;94962.50;6084844;28;109187;-63
2023/03/31 04:58:22;;;;;;;15.53;13.93;;;;;;;21.51;35.43;94976.44;6089638;28;109156;-62
2023/03/31 05:01:33;;;;;;;15.40;13.93;;;;;;;21.48;35.10;94974.34;6089913;28;109069;-62
2023/03/31 05:04:46;;;;;;;13.97;12.57;;;;;;;21.45;34.60;94962.44;6079470;28;109424;-61
2023/03/31 05:07:55;;;;;;;13.27;11.97;;;;;;;21.42;34.51;94948.94;6089722;28;109143;-61
2023/03/31 05:11:05;;;;;;;12.00;10.90;;;;;;;21.17;34.07;94959.13;6089236;28;109583;-59
2023/03/31 05:14:13;;;;;;;13.03;10.90;;;;;;;20.96;34.32;94965.16;6086902;28;109070;-59
2023/03/31 05:17:18;;;;;;;12.50;11.03;;;;;;;20.82;34.16;94949.22;6079970;28;108862;-59
2023/03/31 05:20:26;;;;;;;11.60;10.50;;;;;;;20.77;34.27;94944.81;6089319;28;109229;-59
2023/03/31 05:23:35;;;;;;;9.87;8.93;;;;;;;20.70;34.24;94927.69;6089149;28;110107;-59
2023/03/31 05:26:46;;;;;;;11.20;9.70;;;;;;;20.63;34.08;94928.88;6078748;28;109126;-59
2023/03/31 05:29:55;;;;;;;10.83;9.03;;;;;;;20.63;34.09;94925.44;6089075;28;109045;-59
2023/03/31 05:33:06;;;;;;;13.33;9.80;;;;;;;20.65;34.16;94923.25;6065527;28;110332;-58
2023/03/31 05:36:19;;;;;;;11.33;9.90;;;;;;;20.63;34.11;94926.22;6065690;28;109133;-59
2023/03/31 05:39:31;;;;;;;11.87;10.77;;;;;;;20.66;34.33;94937.34;6055556;28;109231;-59
2023/03/31 05:42:41;;;;;;;11.17;10.07;;;;;;;20.66;34.43;94927.47;6065377;28;109191;-59
2023/03/31 05:45:54;;;;;;;11.70;10.33;;;;;;;20.71;34.40;94922.06;6064539;28;109049;-60
2023/03/31 05:49:04;;;;;;;10.87;9.60;;;;;;;21.10;35.09;94928.69;6060963;28;109081;-59
2023/03/31 05:52:12;;;;;;;10.20;9.30;;;;;;;21.23;35.77;94917.19;6067079;28;110643;-59
2023/03/31 05:55:23;;;;;;;9.83;8.97;;;;;;;21.36;35.66;94923.56;6088143;28;109083;-60
2023/03/31 05:58:32;;;;;;;13.17;9.57;;;;;;;21.41;35.47;94924.19;6092920;28;109188;-60
2023/03/31 06:01:40;;;;;;;9.77;8.87;;;;;;;21.44;35.91;94931.56;6082033;28;109949;-60
2023/03/31 06:04:52;;;;;;;9.90;8.90;;;;;;;21.49;35.89;94936.75;6092863;28;108983;-60
2023/03/31 06:08:02;;;;;;;9.43;8.40;;;;;;;21.52;35.59;94932.72;6093214;28;109440;-60
2023/03/31 06:11:18;;;;;;;9.00;8.20;;;;;;;21.56;35.29;94936.34;6092655;28;108936;-60
2023/03/31 06:14:31;;;;;;;9.00;8.10;;;;;;;21.58;35.62;94938.72;6083009;28;109302;-60
2023/03/31 06:17:44;;;;;;;9.90;9.00;;;;;;;21.58;35.67;94939.50;6092096;28;109453;-60
2023/03/31 06:20:52;;;;;;;9.63;8.60;;;;;;;21.56;36.09;94930.25;6083568;28;109212;-60
2023/03/31 06:24:04;;;;;;;10.07;9.03;;;;;;;21.54;35.82;94927.88;6057987;28;110454;-61
2023/03/31 06:27:14;;;;;;;10.53;9.60;;;;;;;21.54;36.18;94924.44;6068482;28;109260;-60
2023/03/31 06:30:29;;;;;;;11.00;9.87;;;;;;;21.55;36.08;94934.78;6068116;28;109116;-60
2023/03/31 06:33:44;;;;;;;10.50;9.50;;;;;;;21.48;36.53;94921.88;6067921;28;109272;-60
2023/03/31 06:36:52;;;;;;;12.63;10.80;;;;;;;21.57;37.01;94934.47;6057348;28;109097;-60
2023/03/31 06:40:03;;;;;;;12.90;10.90;;;;;;;21.58;37.41;94933.38;6068212;28;108858;-60
2023/03/31 06:43:15;;;;;;;12.13;10.93;;;;;;;21.60;37.47;94928.53;6067629;28;112919;-60
2023/03/31 06:46:27;;;;;;;12.20;11.00;;;;;;;21.59;37.15;94925.09;6061020;28;109200;-60
2023/03/31 06:49:43;;;;;;;11.70;10.70;;;;;;;21.68;37.12;94941.13;6066930;28;109117;-59
2023/03/31 06:52:57;;;;;;;11.13;9.93;;;;;;;21.66;37.40;94937.97;6067657;28;108962;-59
2023/03/31 06:56:09;;;;;;;11.13;10.13;;;;;;;21.77;36.88;94944.59;6091206;28;109122;-60
2023/03/31 06:59:21;;;;;;;10.50;9.50;;;;;;;21.75;37.00;94944.91;6081587;28;109239;-60
2023/03/31 07:02:31;;;;;;;11.30;10.30;;;;;;;21.88;36.71;94937.19;6091113;28;109063;-62
2023/03/31 07:05:41;;;;;;;10.37;9.37;;;;;;;21.94;35.94;94935.94;6090684;28;109044;-61
2023/03/31 07:08:48;;;;;;;11.23;9.90;;;;;;;21.87;36.17;94927.63;6088109;28;111406;-61
2023/03/31 07:12:04;;;;;;;11.17;10.10;;;;;;;21.87;35.92;94919.63;6085966;28;109185;-60
2023/03/31 07:15:15;;;;;;;11.10;10.10;;;;;;;21.85;36.33;94903.16;6090856;28;109038;-61
2023/03/31 07:18:31;;;;;;;10.67;9.67;;;;;;;21.79;36.17;94881.16;6090941;28;109068;-60
2023/03/31 07:21:44;;;;;;;11.40;10.40;;;;;;;21.98;35.73;94878.28;6079444;28;110407;-59
2023/03/31 07:24:54;;;;;;;10.67;9.53;;;;;;;22.06;35.56;94874.88;6090725;28;109720;-60
2023/03/31 07:28:05;;;;;;;11.00;9.90;;;;;;;22.09;35.71;94872.38;6090662;28;109218;-60
2023/03/31 07:31:18;;;;;;;10.93;9.93;;;;;;;22.09;35.66;94861.72;6090305;28;109091;-63
2023/03/31 07:34:29;;;;;;;10.70;9.70;;;;;;;22.15;35.42;94866.88;6080996;28;109674;-60
2023/03/31 07:37:40;;;;;;;12.23;10.27;;;;;;;22.15;35.03;94877.53;6090826;28;109071;-60
2023/03/31 07:40:58;;;;;;;11.23;10.23;;;;;;;22.10;34.90;94868.59;6090656;28;109052;-60
2023/03/31 07:44:16;;;;;;;11.10;10.00;;;;;;;22.13;35.07;94869.06;6080009;28;109598;-61
2023/03/31 07:47:31;;;;;;;11.13;9.90;;;;;;;22.15;35.36;94859.66;6090470;28;109436;-60
2023/03/31 07:50:45;;;;;;;11.47;10.47;;;;;;;22.16;35.02;94853.25;6090421;28;109147;-63
2023/03/31 07:53:54;;;;;;;10.47;9.53;;;;;;;22.16;34.96;94857.78;6089378;28;109236;-62
2023/03/31 07:57:07;;;;;;;11.23;9.83;;;;;;;22.22;35.15;94845.91;6079229;28;109461;-62
2023/03/31 08:00:20;;;;;;;10.50;9.40;;;;;;;22.26;35.12;94855.63;6090231;28;108894;-62
2023/03/31 08:03:33;;;;;;;10.03;9.13;;;;;;;22.30;34.68;94853.13;6089431;28;109544;-62
2023/03/31 08:06:48;;;;;;;11.20;10.10;;;;;;;22.35;34.51;94842.31;6081170;28;109440;-62
2023/03/31 08:09:58;;;;;;;10.37;9.47;;;;;;;22.36;35.10;94831.34;6089610;28;109115;-61
2023/03/31 08:13:11;;;;;;;10.70;9.77;;;;;;;22.42;34.61;94831.97;6089091;28;109704;-62
2023/03/31 08:16:22;;;;;;;11.37;10.33;;;;;;;22.40;34.63;94820.84;6090396;28;109069;-61
2023/03/31 08:19:38;;;;;;;10.07;9.17;;;;;;;22.44;34.84;94821.00;6079382;28;110195;-61
2023/03/31 08:22:50;;;;;;;11.00;10.00;;;;;;;22.42;35.19;94818.63;6090077;28;109503;-61
2023/03/31 08:26:16;;;;;;;10.27;9.20;;;;;;;22.40;35.03;94818.19;6088858;28;109092;-61
2023/03/31 08:29:27;;;;;;;10.37;9.47;;;;;;;22.36;35.26;94812.69;6083737;28;109090;-62
2023/03/31 08:32:33;;;;;;;8.90;8.17;;;;;;;22.47;34.72;94818.47;6085266;28;109183;-61
2023/03/31 08:35:46;;;;;;;9.23;8.33;;;;;;;22.51;34.46;94816.75;6089348;28;109111;-62
2023/03/31 08:38:59;;;;;;;10.37;8.83;;;;;;;22.48;34.59;94814.72;6089519;28;110101;-61
2023/03/31 08:42:15;;;;;;;11.50;9.03;;;;;;;22.44;34.76;94807.66;6065430;28;109934;-61
2023/03/31 08:45:24;;;;;;;10.00;8.97;;;;;;;22.39;35.25;94809.41;6089404;28;109577;-61
2023/03/31 08:48:43;;;;;;;9.50;8.30;;;;;;;22.32;35.34;94810.94;6089316;28;109134;-61
2023/03/31 08:51:56;;;;;;;8.87;7.97;;;;;;;22.39;34.87;94812.06;6085103;28;109298;-62
2023/03/31 08:55:14;;;;;;;11.00;8.03;;;;;;;22.39;34.98;94798.72;6083507;28;109025;-61
2023/03/31 08:58:35;;;;;;;8.60;7.87;;;;;;;22.50;34.71;94804.50;6087345;28;109548;-61
2023/03/31 09:01:56;;;;;;;9.23;8.10;;;;;;;22.41;34.78;94769.88;6089245;28;109117;-61
2023/03/31 09:05:24;;;;;;;8.00;7.30;;;;;;;22.41;34.96;94782.41;6077166;28;112472;-61
2023/03/31 09:08:37;;;;;;;8.20;7.50;;;;;;;22.42;35.45;94787.44;6089631;28;108541;-61
2023/03/31 09:11:54;;;;;;;8.73;7.93;;;;;;;22.40;35.32;94788.84;6088781;28;109160;-60
2023/03/31 09:15:04;;;;;;;8.23;7.53;;;;;;;22.38;35.35;94791.03;6083856;28;109119;-61
2023/03/31 09:18:28;;;;;;;8.20;7.40;;;;;;;22.39;34.99;94792.63;6083514;28;109153;-61
2023/03/31 09:21:46;;;;;;;7.93;7.23;;;;;;;22.36;35.24;94787.91;6088816;28;109281;-61
2023/03/31 09:25:02;;;;;;;8.10;7.30;;;;;;;22.34;35.87;94787.41;6088381;28;109081;-61
2023/03/31 09:28:22;;;;;;;7.60;6.90;;;;;;;22.23;35.56;94788.84;6077873;28;109015;-62
2023/03/31 09:31:35;;;;;;;8.30;7.57;;;;;;;22.28;35.67;94791.34;6088246;28;111415;-61
2023/03/31 09:34:47;;;;;;;7.77;7.07;;;;;;;22.28;35.96;94784.13;6088689;28;109521;-61
2023/03/31 09:37:53;;;;;;;9.37;6.50;;;;;;;22.31;36.45;94790.72;6083195;28;109507;-60
2023/03/31 09:40:58;;;;;;;12.03;7.37;;;;;;;22.31;36.44;94780.84;6082614;28;109504;-61
2023/03/31 09:44:23;;;;;;;7.57;6.07;;;;;;;22.33;37.11;94785.84;6088065;28;109075;-62
2023/03/31 09:47:41;;;;;;;10.30;7.10;;;;;;;22.38;37.66;94783.03;6088965;28;108748;-61
2023/03/31 09:50:54;;;;;;;12.73;6.30;;;;;;;22.32;37.84;94770.94;6079276;28;109737;-62
2023/03/31 09:54:10;;;;;;;8.03;6.10;;;;;;;22.41;38.31;94774.41;6088657;28;111020;-61
2023/03/31 09:57:26;;;;;;;11.13;6.67;;;;;;;22.44;37.89;94770.34;6087825;28;109942;-60
2023/03/31 10:00:43;;;;;;;9.90;5.70;;;;;;;22.44;38.84;94773.78;6083797;28;109560;-60
2023/03/31 10:03:55;;;;;;;10.63;5.83;;;;;;;22.40;38.77;94760.31;6082063;28;109162;-61
2023/03/31 10:07:05;;;;;;;7.93;6.03;;;;;;;22.45;38.26;94754.03;6088351;28;109538;-60
2023/03/31 10:10:26;;;;;;;10.40;6.33;;;;;;;22.47;38.54;94746.47;6088368;28;109050;-61
2023/03/31 10:13:44;;;;;;;9.30;7.17;;;;;;;22.45;38.57;94743.34;6077933;28;111786;-62
2023/03/31 10:16:58;;;;;;;6.30;5.70;;;;;;;22.44;38.88;94746.34;6088265;28;109246;-61
2023/03/31 10:20:22;;;;;;;6.43;5.67;;;;;;;22.37;37.91;94754.81;6088134;28;109095;-60
2023/03/31 10:23:31;;;;;;;6.47;5.13;;;;;;;22.35;38.22;94746.34;6083372;28;109606;-60
2023/03/31 10:26:45;;;;;;;6.73;4.77;;;;;;;22.35;37.22;94733.03;6082994;28;109082;-60
2023/03/31 10:30:00;;;;;;;6.57;4.70;;;;;;;22.27;37.33;94718.59;6088147;28;109209;-59
2023/03/31 10:33:18;;;;;;;8.53;4.70;;;;;;;22.37;37.52;94728.16;6087712;28;109172;-61
2023/03/31 10:36:34;;;;;;;6.33;4.73;;;;;;;22.32;37.92;94717.63;6079249;28;110200;-60
2023/03/31 10:39:46;;;;;;;6.93;4.60;;;;;;;22.38;38.28;94729.72;6092118;28;109055;-60
2023/03/31 10:43:01;;;;;;;10.37;5.30;;;;;;;22.40;38.31;94727.53;6091610;28;109123;-60
2023/03/31 10:46:06;;;;;;;6.80;4.13;;;;;;;22.36;38.46;94713.25;6086562;28;109178;-61
2023/03/31 10:49:24;;;;;;;9.13;5.47;;;;;;;22.38;38.53;94721.72;6086824;28;109771;-60
2023/03/31 10:52:29;;;;;;;8.83;4.73;;;;;;;22.37;38.14;94712.94;6091641;28;108956;-61
2023/03/31 10:55:43;;;;;;;10.10;4.43;;;;;;;22.36;38.76;94702.59;6091653;28;112534;-60
2023/03/31 10:59:05;;;;;;;6.70;4.60;;;;;;;22.34;38.32;94705.56;6080970;28;109075;-61
2023/03/31 11:02:35;;;;;;;5.83;4.53;;;;;;;22.32;38.40;94704.31;6091188;28;109258;-61
2023/03/31 11:05:51;;;;;;;5.53;4.03;;;;;;;22.31;38.84;94702.75;6090631;28;109056;-60
2023/03/31 11:09:12;;;;;;;5.33;4.80;;;;;;;22.30;38.64;94703.84;6085427;28;109237;-61
2023/03/31 11:12:25;;;;;;;5.37;3.93;;;;;;;22.26;38.52;94692.25;6085822;28;109091;-61
2023/03/31 11:15:42;;;;;;;9.87;4.50;;;;;;;22.22;38.92;94692.09;6090775;28;109120;-60
2023/03/31 11:19:14;;;;;;;6.60;4.23;;;;;;;22.24;38.83;94683.78;6091024;28;109898;-60
2023/03/31 11:22:32;;;;;;;5.03;4.13;;;;;;;22.16;39.01;94665.91;6080655;28;111510;-59
2023/03/31 11:25:45;;;;;;;5.53;3.50;;;;;;;22.19;38.59;94662.63;6091013;28;109080;-59
2023/03/31 11:29:05;;;;;;;4.03;3.70;;;;;;;22.17;38.46;94654.16;6091501;28;109151;-59
2023/03/31 11:32:36;;;;;;;6.10;3.73;;;;;;;22.11;38.45;94649.00;6085604;28;109192;-59
2023/03/31 11:36:05;;;;;;;5.50;3.67;;;;;;;22.07;38.69;94642.72;6090402;28;109265;-59
2023/03/31 11:39:26;;;;;;;7.13;3.70;;;;;;;22.20;38.12;94657.00;6090926;28;109373;-59
2023/03/31 11:42:38;;;;;;;4.60;3.27;;;;;;;22.20;37.98;94649.00;6090018;28;109184;-59
2023/03/31 11:45:52;;;;;;;4.10;3.30;;;;;;;22.19;38.14;94643.97;6079634;28;111063;-62
2023/03/31 11:49:07;;;;;;;4.13;3.10;;;;;;;22.21;38.13;94639.91;6090223;28;109188;-60
2023/03/31 11:52:17;;;;;;;3.77;2.97;;;;;;;22.18;38.36;94637.06;6090496;28;109119;-59
2023/03/31 11:55:29;;;;;;;3.27;2.97;;;;;;;22.19;37.58;94638.66;6080177;28;109142;-59
2023/03/31 11:58:45;;;;;;;5.43;3.10;;;;;;;22.19;37.92;94639.44;6090157;28;109135;-61
2023/03/31 12:01:59;;;;;;;3.90;2.60;;;;;;;22.20;37.90;94629.56;6090383;28;109112;-61
2023/03/31 12:05:13;;;;;;;4.40;3.10;;;;;;;22.14;37.74;94604.16;6089492;28;109143;-61
2023/03/31 12:08:30;;;;;;;3.80;2.87;;;;;;;22.23;37.71;94607.59;6079812;28;109580;-59
2023/03/31 12:11:45;;;;;;;5.40;3.47;;;;;;;22.26;37.71;94607.75;6089219;28;109072;-61
2023/03/31 12:15:01;;;;;;;6.87;2.90;;;;;;;22.28;39.18;94594.88;6089059;28;109136;-59
2023/03/31 12:18:16;;;;;;;11.00;3.40;;;;;;;22.34;39.52;94596.25;6080025;28;109544;-62
2023/03/31 12:21:34;;;;;;;5.17;3.07;;;;;;;22.36;39.39;94598.63;6088770;28;109064;-59
2023/03/31 12:24:45;;;;;;;6.33;2.80;;;;;;;22.39;38.75;94592.66;6088944;28;109098;-60
2023/03/31 12:27:58;;;;;;;9.97;3.40;;;;;;;22.36;39.19;94602.09;6089876;28;109045;-59
2023/03/31 12:31:15;;;;;;;8.63;3.10;;;;;;;22.30;38.52;94599.88;6079298;28;109348;-60
2023/03/31 12:34:28;;;;;;;11.37;3.73;;;;;;;22.28;38.89;94588.75;6090036;28;109599;-59
2023/03/31 12:38:11;;;;;;;10.23;3.60;;;;;;;22.32;38.78;94582.47;6089599;28;109141;-59
2023/03/31 12:41:25;;;;;;;6.03;3.40;;;;;;;22.32;38.52;94584.34;6079673;28;109784;-59
2023/03/31 12:44:53;;;;;;;12.33;3.47;;;;;;;22.31;38.46;94588.91;6089342;28;108817;-60
2023/03/31 12:48:36;;;;;;;6.47;3.83;;;;;;;22.33;38.60;94575.25;6088737;28;109263;-60
2023/03/31 12:52:01;;;;;;;10.07;3.10;;;;;;;22.35;38.78;94562.41;6086720;28;109250;-61
2023/03/31 12:55:38;;;;;;;7.27;3.40;;;;;;;22.34;38.76;94555.50;6083418;28;109373;-60
2023/03/31 12:58:48;;;;;;;6.33;3.37;;;;;;;22.37;38.42;94546.88;6088175;28;109172;-60
2023/03/31 13:02:27;;;;;;;7.53;3.60;;;;;;;22.41;38.83;94547.81;6089249;28;109083;-60
2023/03/31 13:05:50;;;;;;;9.23;3.50;;;;;;;22.43;38.44;94532.25;6076822;28;109188;-60
2023/03/31 13:08:56;;;;;;;9.63;3.97;;;;;;;22.16;38.36;94484.69;6089133;28;109222;-60
2023/03/31 13:12:14;;;;;;;8.87;4.00;;;;;;;22.42;38.99;94520.03;6089242;28;109142;-60
2023/03/31 13:15:20;;;;;;;7.60;4.20;;;;;;;22.45;39.27;94514.06;6080769;28;110069;-61
2023/03/31 13:18:29;;;;;;;9.13;4.13;;;;;;;22.45;39.00;94506.06;6088299;28;109287;-60
2023/03/31 13:21:56;;;;;;;9.57;3.83;;;;;;;22.37;39.04;94491.69;6087925;28;109138;-59
2023/03/31 13:25:40;;;;;;;6.80;3.67;;;;;;;22.46;38.69;94482.84;6088617;28;109090;-59
2023/03/31 13:29:13;;;;;;;6.57;3.50;;;;;;;22.45;38.96;94465.28;6078445;28;109077;-60
2023/03/31 13:32:23;;;;;;;7.10;4.33;;;;;;;22.44;38.66;94466.38;6088400;28;109220;-59
2023/03/31 13:35:33;;;;;;;5.70;4.30;;;;;;;22.40;38.64;94458.25;6088864;28;109107;-59
2023/03/31 13:38:55;;;;;;;8.33;4.10;;;;;;;22.44;38.63;94459.16;6078006;28;109170;-60
2023/03/31 13:42:21;;;;;;;6.17;3.73;;;;;;;22.44;38.42;94453.06;6088754;28;109084;-59
2023/03/31 13:45:48;;;;;;;8.10;3.67;;;;;;;22.34;39.05;94428.31;6089172;28;109389;-60
2023/03/31 13:49:15;;;;;;;6.93;4.03;;;;;;;22.47;39.53;94437.19;6086075;28;108813;-62
2023/03/31 13:52:36;;;;;;;15.53;4.47;;;;;;;22.41;39.55;94423.28;6084377;28;109588;-59
2023/03/31 13:56:02;;;;;;;8.10;4.03;;;;;;;22.47;39.06;94417.75;6087775;28;109077;-59
2023/03/31 13:59:43;;;;;;;5.20;3.60;;;;;;;22.42;39.60;94413.41;6087619;28;109120;-61
2023/03/31 14:03:23;;;;;;;9.47;3.67;;;;;;;22.40;39.23;94412.94;6077762;28;109436;-61
2023/03/31 14:06:40;;;;;;;7.40;4.00;;;;;;;22.39;38.71;94409.50;6087328;28;108692;-58
2023/03/31 14:09:53;;;;;;;6.43;3.57;;;;;;;22.41;39.42;94412.63;6088269;28;109943;-61
2023/03/31 14:13:21;;;;;;;6.03;3.23;;;;;;;22.34;39.07;94404.31;6081277;28;108852;-59
2023/03/31 14:16:40;;;;;;;21.30;4.47;;;;;;;22.39;38.65;94398.84;6092176;28;109133;-59
2023/03/31 14:20:07;;;;;;;10.03;3.90;;;;;;;22.45;38.92;94401.31;6092163;28;109292;-59
2023/03/31 14:23:30;;;;;;;14.20;4.20;;;;;;;22.44;38.70;94405.06;6087283;28;109055;-60
2023/03/31 14:26:47;;;;;;;16.50;4.60;;;;;;;22.45;39.66;94399.41;6062288;28;109231;-59
2023/03/31 14:30:05;;;;;;;7.57;3.90;;;;;;;22.47;39.40;94399.09;6067268;28;109270;-59
2023/03/31 14:33:26;;;;;;;13.50;4.80;;;;;;;22.46;39.56;94398.31;6067995;28;109149;-60
2023/03/31 14:36:40;;;;;;;13.23;6.20;;;;;;;22.45;39.08;94391.41;6057307;28;109425;-59
2023/03/31 14:39:51;;;;;;;9.20;4.47;;;;;;;22.43;38.71;94393.63;6067784;28;109189;-60
2023/03/31 14:42:59;;;;;;;6.33;4.70;;;;;;;22.47;39.48;94383.88;6067847;28;109104;-60
2023/03/31 14:46:13;;;;;;;8.57;5.10;;;;;;;22.47;39.17;94391.88;6062975;28;109336;-60
2023/03/31 14:49:22;;;;;;;8.17;4.83;;;;;;;22.46;39.50;94378.88;6061940;28;109141;-61
2023/03/31 14:52:34;;;;;;;8.00;6.03;;;;;;;22.46;38.75;94376.19;6068159;28;109084;-61
2023/03/31 14:55:46;;;;;;;9.57;7.83;;;;;;;22.41;38.62;94363.84;6073816;28;109228;-59
2023/03/31 14:59:05;;;;;;;24.37;8.60;;;;;;;22.37;38.84;94362.94;6080698;28;109780;-61
2023/03/31 15:02:20;;;;;;;11.90;8.73;;;;;;;22.39;39.44;94360.72;6090068;28;109456;-61
2023/03/31 15:05:34;;;;;;;19.47;11.93;;;;;;;22.42;39.75;94358.19;6089472;28;109367;-61